createdAt,value
2023-05-06T00:01:32.920Z,2.60
2023-05-06T00:04:18.577Z,2.45
2023-05-06T00:07:03.871Z,2.03
2023-05-06T00:09:49.604Z,2.45
2023-05-06T00:12:38.089Z,2.50
2023-05-06T00:15:23.214Z,2.83
2023-05-06T00:18:08.552Z,2.42
2023-05-06T00:20:54.040Z,3.33
2023-05-06T00:23:39.460Z,2.28
2023-05-06T00:26:25.685Z,2.35
2023-05-06T00:29:12.089Z,2.50
2023-05-06T00:31:58.542Z,3.88
2023-05-06T00:34:44.283Z,2.50
2023-05-06T00:37:29.961Z,2.60
2023-05-06T00:40:15.267Z,2.75
2023-05-06T00:43:00.357Z,2.75
2023-05-06T00:45:46.053Z,2.75
2023-05-06T00:48:31.637Z,2.90
2023-05-06T00:51:17.610Z,3.13
2023-05-06T00:54:02.966Z,4.90
2023-05-06T00:56:48.562Z,3.53
2023-05-06T00:59:33.828Z,3.80
2023-05-06T01:02:19.110Z,4.20
2023-05-06T01:05:04.849Z,3.10
2023-05-06T01:08:32.445Z,3.33
2023-05-06T01:11:33.980Z,3.60
2023-05-06T01:14:47.538Z,3.53
2023-05-06T01:17:35.830Z,4.45
2023-05-06T01:20:21.968Z,4.35
2023-05-06T01:23:14.489Z,6.03
2023-05-06T01:25:59.854Z,5.25
2023-05-06T01:28:45.059Z,5.35
2023-05-06T01:31:39.939Z,5.85
2023-05-06T01:34:34.136Z,5.85
2023-05-06T01:37:30.345Z,6.15
2023-05-06T01:40:17.698Z,6.13
2023-05-06T01:43:05.655Z,6.55
2023-05-06T01:45:54.030Z,6.45
2023-05-06T01:48:39.850Z,6.68
2023-05-06T01:51:25.186Z,6.90
2023-05-06T01:54:11.134Z,6.75
2023-05-06T01:56:57.410Z,6.70
2023-05-06T01:59:42.952Z,5.97
2023-05-06T02:02:28.579Z,6.05
2023-05-06T02:05:13.996Z,5.60
2023-05-06T02:08:03.746Z,5.82
2023-05-06T02:10:49.055Z,5.85
2023-05-06T02:13:34.275Z,6.70
2023-05-06T02:16:19.848Z,5.45
2023-05-06T02:19:05.691Z,6.18
2023-05-06T02:21:51.244Z,6.38
2023-05-06T02:24:36.339Z,6.03
2023-05-06T02:27:21.633Z,5.60
2023-05-06T02:30:07.695Z,5.45
2023-05-06T02:32:53.106Z,5.50
2023-05-06T02:35:39.793Z,5.40
2023-05-06T02:38:25.785Z,6.07
2023-05-06T02:41:12.016Z,5.72
2023-05-06T02:43:57.246Z,6.30
2023-05-06T02:46:42.619Z,6.82
2023-05-06T02:49:29.232Z,6.75
2023-05-06T02:52:15.253Z,7.10
2023-05-06T02:55:01.822Z,6.72
2023-05-06T02:57:47.285Z,6.88
2023-05-06T03:00:32.405Z,6.85
2023-05-06T03:03:17.995Z,7.53
2023-05-06T03:06:03.616Z,7.72
2023-05-06T03:08:48.903Z,7.90
2023-05-06T03:11:34.108Z,8.35
2023-05-06T03:14:22.640Z,9.52
2023-05-06T03:17:08.379Z,9.02
2023-05-06T03:19:55.726Z,9.73
2023-05-06T03:22:41.563Z,12.52
2023-05-06T03:25:26.896Z,8.80
2023-05-06T03:28:13.507Z,10.15
2023-05-06T03:31:00.196Z,9.15
2023-05-06T03:33:45.679Z,15.65
2023-05-06T03:36:32.061Z,21.95
2023-05-06T03:39:18.085Z,20.50
2023-05-06T03:42:05.918Z,8.73
2023-05-06T03:44:52.368Z,9.55
2023-05-06T03:47:37.725Z,9.68
2023-05-06T03:50:25.511Z,11.20
2023-05-06T03:53:12.433Z,9.18
2023-05-06T03:55:59.983Z,9.32
2023-05-06T03:58:45.078Z,13.52
2023-05-06T04:01:30.930Z,12.55
2023-05-06T04:04:16.222Z,12.18
2023-05-06T04:07:02.441Z,13.52
2023-05-06T04:09:47.976Z,12.40
2023-05-06T04:12:34.431Z,13.88
2023-05-06T04:15:19.958Z,10.50
2023-05-06T04:18:05.850Z,9.63
2023-05-06T04:20:51.505Z,10.23
2023-05-06T04:23:37.096Z,9.48
2023-05-06T04:26:22.850Z,9.65
2023-05-06T04:29:08.977Z,10.00
2023-05-06T04:32:00.559Z,9.45
2023-05-06T04:34:48.901Z,9.43
2023-05-06T04:37:35.006Z,9.25
2023-05-06T04:40:27.322Z,9.35
2023-05-06T04:43:12.999Z,8.30
2023-05-06T04:45:58.530Z,8.75
2023-05-06T04:48:47.571Z,9.15
2023-05-06T04:51:34.601Z,9.57
2023-05-06T04:54:20.852Z,9.27
2023-05-06T04:57:06.388Z,9.13
2023-05-06T04:59:53.128Z,9.57
2023-05-06T05:02:38.471Z,9.32
2023-05-06T05:05:25.801Z,9.52
2023-05-06T05:08:12.124Z,10.05
2023-05-06T05:10:57.767Z,10.23
2023-05-06T05:13:44.851Z,9.30
2023-05-06T05:16:30.341Z,9.55
2023-05-06T05:19:16.334Z,9.95
2023-05-06T05:22:02.444Z,8.88
2023-05-06T05:24:50.176Z,7.68
2023-05-06T05:27:35.808Z,7.13
2023-05-06T05:30:21.313Z,6.53
2023-05-06T05:33:08.187Z,6.88
2023-05-06T05:35:56.011Z,8.35
2023-05-06T05:38:42.038Z,7.03
2023-05-06T05:41:27.724Z,7.18
2023-05-06T05:44:13.581Z,7.35
2023-05-06T05:46:59.740Z,6.82
2023-05-06T05:49:46.736Z,6.63
2023-05-06T05:52:35.636Z,7.25
2023-05-06T05:55:22.030Z,5.97
2023-05-06T05:58:10.419Z,6.05
2023-05-06T06:00:56.669Z,5.25
2023-05-06T06:03:42.429Z,5.57
2023-05-06T06:06:28.109Z,5.43
2023-05-06T06:09:13.479Z,4.70
2023-05-06T06:11:59.451Z,5.15
2023-05-06T06:14:47.941Z,5.55
2023-05-06T06:17:38.984Z,4.55
2023-05-06T06:20:25.513Z,4.53
2023-05-06T06:23:11.967Z,4.28
2023-05-06T06:25:57.211Z,4.38
2023-05-06T06:28:42.721Z,4.90
2023-05-06T06:31:28.165Z,4.60
2023-05-06T06:34:13.255Z,4.43
2023-05-06T06:36:59.008Z,4.43
2023-05-06T06:39:44.487Z,4.40
2023-05-06T06:42:29.835Z,4.20
2023-05-06T06:45:26.366Z,3.80
2023-05-06T06:48:11.881Z,4.53
2023-05-06T06:50:56.927Z,3.80
2023-05-06T06:53:42.135Z,4.03
2023-05-06T06:56:27.209Z,4.10
2023-05-06T06:59:12.484Z,3.78
2023-05-06T07:01:57.814Z,3.72
2023-05-06T07:04:43.048Z,3.70
2023-05-06T07:07:28.521Z,3.60
2023-05-06T07:10:13.988Z,3.90
2023-05-06T07:12:59.282Z,4.18
2023-05-06T07:15:44.523Z,4.18
2023-05-06T07:18:29.601Z,3.92
2023-05-06T07:21:15.778Z,3.88
2023-05-06T07:24:00.940Z,3.70
2023-05-06T07:26:47.174Z,2.85
2023-05-06T07:29:32.936Z,2.90
2023-05-06T07:32:18.382Z,2.78
2023-05-06T07:35:04.079Z,2.55
2023-05-06T07:37:49.510Z,2.80
2023-05-06T07:40:34.651Z,2.70
2023-05-06T07:43:22.012Z,2.38
2023-05-06T07:46:07.397Z,2.30
2023-05-06T07:48:52.754Z,2.90
2023-05-06T07:51:38.195Z,3.67
2023-05-06T07:54:23.677Z,3.50
2023-05-06T07:57:09.353Z,2.97
2023-05-06T07:59:54.821Z,2.28
2023-05-06T08:02:40.115Z,2.40
2023-05-06T08:05:25.246Z,2.40
2023-05-06T08:08:10.690Z,2.25
2023-05-06T08:10:58.636Z,2.85
2023-05-06T08:13:44.299Z,2.85
2023-05-06T08:16:29.641Z,2.65
2023-05-06T08:19:15.081Z,2.53
2023-05-06T08:22:00.834Z,2.35
2023-05-06T08:24:46.097Z,2.45
2023-05-06T08:27:31.576Z,3.88
2023-05-06T08:30:17.023Z,2.40
2023-05-06T08:33:02.780Z,2.30
2023-05-06T08:35:47.942Z,1.85
2023-05-06T08:38:33.498Z,2.47
2023-05-06T08:41:20.752Z,2.10
2023-05-06T08:44:07.943Z,3.00
2023-05-06T08:46:53.631Z,2.28
2023-05-06T08:49:40.430Z,2.15
2023-05-06T08:52:26.430Z,2.10
2023-05-06T08:55:12.363Z,2.75
2023-05-06T08:57:58.424Z,1.95
2023-05-06T09:00:44.564Z,2.08
2023-05-06T09:03:29.784Z,1.77
2023-05-06T09:06:15.288Z,1.67
2023-05-06T09:09:00.372Z,1.70
2023-05-06T09:11:45.994Z,1.73
2023-05-06T09:14:31.583Z,2.67
2023-05-06T09:17:21.844Z,1.40
2023-05-06T09:20:11.551Z,1.50
2023-05-06T09:22:57.295Z,3.58
2023-05-06T09:25:44.415Z,2.05
2023-05-06T09:28:33.045Z,1.40
2023-05-06T09:31:18.452Z,1.73
2023-05-06T09:34:04.059Z,1.40
2023-05-06T09:36:49.183Z,2.10
2023-05-06T09:39:34.392Z,1.45
2023-05-06T09:42:21.665Z,1.30
2023-05-06T09:45:08.692Z,1.98
2023-05-06T09:47:54.401Z,1.65
2023-05-06T09:50:39.748Z,1.40
2023-05-06T09:53:25.496Z,1.67
2023-05-06T09:56:12.113Z,2.47
2023-05-06T09:58:58.355Z,1.65
2023-05-06T10:01:43.910Z,1.25
2023-05-06T10:04:30.978Z,1.15
2023-05-06T10:07:20.522Z,4.75
2023-05-06T10:10:09.002Z,2.03
2023-05-06T10:12:55.443Z,1.33
2023-05-06T10:15:42.333Z,1.50
2023-05-06T10:18:31.870Z,1.15
2023-05-06T10:21:24.151Z,1.20
2023-05-06T10:24:13.358Z,1.20
2023-05-06T10:27:02.001Z,7.13
2023-05-06T10:29:49.099Z,2.88
2023-05-06T10:32:35.034Z,1.88
2023-05-06T10:35:42.199Z,1.25
2023-05-06T10:38:34.341Z,1.80
2023-05-06T10:41:20.284Z,4.15
2023-05-06T10:44:05.818Z,1.98
2023-05-06T10:46:59.723Z,1.00
2023-05-06T10:50:24.194Z,1.55
2023-05-06T10:53:09.730Z,1.75
2023-05-06T10:56:07.434Z,0.73
2023-05-06T10:58:54.739Z,1.70
2023-05-06T11:01:42.114Z,1.33
2023-05-06T11:04:28.317Z,0.98
2023-05-06T11:07:15.628Z,1.02
2023-05-06T11:10:03.882Z,1.98
2023-05-06T11:12:52.320Z,1.98
2023-05-06T11:15:40.708Z,0.60
2023-05-06T11:18:25.736Z,1.02
2023-05-06T11:21:12.227Z,1.40
2023-05-06T11:23:57.494Z,2.97
2023-05-06T11:26:43.372Z,1.38
2023-05-06T11:29:28.790Z,2.55
2023-05-06T11:32:23.163Z,1.00
2023-05-06T11:35:08.691Z,1.15
2023-05-06T11:37:54.443Z,2.05
2023-05-06T11:40:42.065Z,2.22
2023-05-06T11:43:27.330Z,1.08
2023-05-06T11:46:12.374Z,1.02
2023-05-06T11:48:57.539Z,1.50
2023-05-06T11:51:42.823Z,1.08
2023-05-06T11:54:28.228Z,1.08
2023-05-06T11:57:14.111Z,0.88
2023-05-06T11:59:59.497Z,2.65
2023-05-06T12:02:44.690Z,1.95
2023-05-06T12:05:30.582Z,3.92
2023-05-06T12:08:27.977Z,1.25
2023-05-06T12:11:14.032Z,0.93
2023-05-06T12:13:59.902Z,1.05
2023-05-06T12:16:45.427Z,1.65
2023-05-06T12:19:31.944Z,1.60
2023-05-06T12:22:26.285Z,6.63
2023-05-06T12:25:15.474Z,0.80
2023-05-06T12:28:01.119Z,1.05
2023-05-06T12:30:46.861Z,2.40
2023-05-06T12:33:44.660Z,0.80
2023-05-06T12:36:30.816Z,1.50
2023-05-06T12:39:16.111Z,1.48
2023-05-06T12:42:01.429Z,1.35
2023-05-06T12:44:46.673Z,1.50
2023-05-06T12:47:32.045Z,1.98
2023-05-06T12:50:37.635Z,0.88
2023-05-06T12:53:34.285Z,1.23
2023-05-06T12:56:20.852Z,0.60
2023-05-06T12:59:06.206Z,1.05
2023-05-06T13:01:51.493Z,1.08
2023-05-06T13:04:36.645Z,0.65
2023-05-06T13:07:22.196Z,1.77
2023-05-06T13:10:08.014Z,2.17
2023-05-06T13:12:53.564Z,1.65
2023-05-06T13:15:38.943Z,1.02
2023-05-06T13:18:24.505Z,1.35
2023-05-06T13:21:09.941Z,0.80
2023-05-06T13:23:55.387Z,1.02
2023-05-06T13:26:40.618Z,0.80
2023-05-06T13:29:25.914Z,1.60
2023-05-06T13:32:10.970Z,1.00
2023-05-06T13:34:56.568Z,1.13
2023-05-06T13:37:41.652Z,1.05
2023-05-06T13:40:26.902Z,0.75
2023-05-06T13:43:12.324Z,1.00
2023-05-06T13:45:57.735Z,1.00
2023-05-06T13:48:42.974Z,1.08
2023-05-06T13:51:28.169Z,1.83
2023-05-06T13:54:13.472Z,1.80
2023-05-06T13:56:58.582Z,3.65
2023-05-06T13:59:44.178Z,6.20
2023-05-06T14:02:30.305Z,1.77
2023-05-06T14:05:15.846Z,2.90
2023-05-06T14:08:01.853Z,1.25
2023-05-06T14:10:47.135Z,0.80
2023-05-06T14:13:33.812Z,2.53
2023-05-06T14:16:19.291Z,0.80
2023-05-06T14:19:04.574Z,0.82
2023-05-06T14:21:50.004Z,0.98
2023-05-06T14:24:35.274Z,1.20
2023-05-06T14:27:20.874Z,0.95
2023-05-06T14:30:09.440Z,1.02
2023-05-06T14:32:55.351Z,1.98
2023-05-06T14:35:42.295Z,1.27
2023-05-06T14:38:27.464Z,3.85
2023-05-06T14:41:12.957Z,3.30
2023-05-06T14:43:58.449Z,2.35
2023-05-06T14:46:44.179Z,2.13
2023-05-06T14:49:29.908Z,15.18
2023-05-06T14:52:15.334Z,3.75
2023-05-06T14:55:00.380Z,1.98
2023-05-06T14:57:47.034Z,1.15
2023-05-06T15:00:32.600Z,1.48
2023-05-06T15:03:17.719Z,0.88
2023-05-06T15:06:03.105Z,1.75
2023-05-06T15:08:48.577Z,1.38
2023-05-06T15:11:34.099Z,1.45
2023-05-06T15:14:19.609Z,0.93
2023-05-06T15:17:05.375Z,1.38
2023-05-06T15:19:50.762Z,0.80
2023-05-06T15:22:38.684Z,0.75
2023-05-06T15:25:34.950Z,1.30
2023-05-06T15:28:24.230Z,1.13
2023-05-06T15:31:09.859Z,0.88
2023-05-06T15:33:55.214Z,1.08
2023-05-06T15:36:40.729Z,1.88
2023-05-06T15:39:26.032Z,1.45
2023-05-06T15:42:11.488Z,1.35
2023-05-06T15:44:57.678Z,2.10
2023-05-06T15:47:42.906Z,0.77
2023-05-06T15:50:33.415Z,1.95
2023-05-06T15:53:19.882Z,1.10
2023-05-06T15:58:52.896Z,1.55
2023-05-06T16:04:27.863Z,1.35
2023-05-06T16:07:13.376Z,0.98
2023-05-06T16:09:58.729Z,0.98
2023-05-06T16:12:43.938Z,1.35
2023-05-06T16:15:28.948Z,0.70
2023-05-06T16:18:14.779Z,0.80
2023-05-06T16:21:00.001Z,0.82
2023-05-06T16:23:45.450Z,1.50
2023-05-06T16:26:30.767Z,1.23
2023-05-06T16:29:16.232Z,2.15
2023-05-06T16:32:01.563Z,1.40
2023-05-06T16:34:47.290Z,0.90
2023-05-06T16:37:32.890Z,0.80
2023-05-06T16:40:20.026Z,1.08
2023-05-06T16:43:05.187Z,0.77
2023-05-06T16:45:50.637Z,0.80
2023-05-06T16:48:36.110Z,2.10
2023-05-06T16:51:21.509Z,1.50
2023-05-06T16:54:08.212Z,1.17
2023-05-06T16:56:53.362Z,1.42
2023-05-06T16:59:38.840Z,0.77
2023-05-06T17:02:24.010Z,1.50
2023-05-06T17:05:09.619Z,0.88
2023-05-06T17:07:55.180Z,1.27
2023-05-06T17:10:41.209Z,2.08
2023-05-06T17:13:26.442Z,1.27
2023-05-06T17:16:14.990Z,1.15
2023-05-06T17:19:00.021Z,1.60
2023-05-06T17:21:45.712Z,1.10
2023-05-06T17:24:30.892Z,0.90
2023-05-06T17:27:17.499Z,1.88
2023-05-06T17:30:03.125Z,1.58
2023-05-06T17:32:48.576Z,1.38
2023-05-06T17:35:34.032Z,1.73
2023-05-06T17:38:19.603Z,1.55
2023-05-06T17:41:05.415Z,1.52
2023-05-06T17:43:50.630Z,2.83
2023-05-06T17:46:35.917Z,1.40
2023-05-06T17:49:21.413Z,1.10
2023-05-06T17:52:06.547Z,1.40
2023-05-06T17:55:01.066Z,2.55
2023-05-06T17:57:51.139Z,1.50
2023-05-06T18:00:36.423Z,2.88
2023-05-06T18:03:22.722Z,1.75
2023-05-06T18:06:08.441Z,1.63
2023-05-06T18:08:53.800Z,1.50
2023-05-06T18:11:39.695Z,2.28
2023-05-06T18:14:25.256Z,1.60
2023-05-06T18:17:11.044Z,2.22
2023-05-06T18:19:56.120Z,2.78
2023-05-06T18:22:41.735Z,2.13
2023-05-06T18:25:26.967Z,2.17
2023-05-06T18:28:12.521Z,2.30
2023-05-06T18:30:58.006Z,2.38
2023-05-06T18:33:43.444Z,1.98
2023-05-06T18:36:28.679Z,2.58
2023-05-06T18:39:14.096Z,3.35
2023-05-06T18:41:59.276Z,4.10
2023-05-06T18:44:44.463Z,2.50
2023-05-06T18:47:29.705Z,3.33
2023-05-06T18:50:15.172Z,2.70
2023-05-06T18:53:00.315Z,2.30
2023-05-06T18:55:45.698Z,2.90
2023-05-06T18:58:31.215Z,3.15
2023-05-06T19:01:16.993Z,3.78
2023-05-06T19:04:02.467Z,3.70
2023-05-06T19:06:48.402Z,4.10
2023-05-06T19:09:33.486Z,4.03
2023-05-06T19:12:19.019Z,4.05
2023-05-06T19:15:05.143Z,4.45
2023-05-06T19:17:50.472Z,5.05
2023-05-06T19:20:35.820Z,5.35
2023-05-06T19:23:21.215Z,5.40
2023-05-06T19:26:07.091Z,6.03
2023-05-06T19:28:52.694Z,5.95
2023-05-06T19:31:38.179Z,7.07
2023-05-06T19:34:24.550Z,6.82
2023-05-06T19:37:10.021Z,7.20
2023-05-06T19:39:55.392Z,7.35
2023-05-06T19:42:40.573Z,8.15
2023-05-06T19:45:25.705Z,8.68
2023-05-06T19:48:11.061Z,9.07
2023-05-06T19:50:56.440Z,11.32
2023-05-06T19:53:41.819Z,10.32
2023-05-06T19:56:27.181Z,10.85
2023-05-06T19:59:12.282Z,11.75
2023-05-06T20:01:57.454Z,12.07
2023-05-06T20:04:45.922Z,11.50
2023-05-06T20:07:32.179Z,13.35
2023-05-06T20:10:17.671Z,12.73
2023-05-06T20:13:03.648Z,13.15
2023-05-06T20:15:48.960Z,13.68
2023-05-06T20:18:34.055Z,13.57
2023-05-06T20:21:19.479Z,13.63
2023-05-06T20:24:05.174Z,14.73
2023-05-06T20:26:50.839Z,14.07
2023-05-06T20:29:36.224Z,14.35
2023-05-06T20:32:21.455Z,14.07
2023-05-06T20:35:07.494Z,16.20
2023-05-06T20:37:52.787Z,16.10
2023-05-06T20:40:38.302Z,16.05
2023-05-06T20:43:23.482Z,17.02
2023-05-06T20:46:08.794Z,16.20
2023-05-06T20:48:53.875Z,16.40
2023-05-06T20:51:39.145Z,15.85
2023-05-06T20:54:24.342Z,16.20
2023-05-06T20:57:10.733Z,16.83
2023-05-06T20:59:56.345Z,15.30
2023-05-06T21:02:42.261Z,15.32
2023-05-06T21:05:27.963Z,16.75
2023-05-06T21:08:13.154Z,16.58
2023-05-06T21:10:58.690Z,15.65
2023-05-06T21:13:44.179Z,17.23
2023-05-06T21:16:29.706Z,17.50
2023-05-06T21:19:15.207Z,16.98
2023-05-06T21:22:00.785Z,16.77
2023-05-06T21:24:46.098Z,15.73
2023-05-06T21:27:31.755Z,15.80
2023-05-06T21:30:17.146Z,16.95
2023-05-06T21:33:03.654Z,16.95
2023-05-06T21:35:48.883Z,16.67
2023-05-06T21:38:34.051Z,16.98
2023-05-06T21:41:19.551Z,17.98
2023-05-06T21:44:05.668Z,18.45
2023-05-06T21:46:51.401Z,17.48
2023-05-06T21:49:36.851Z,18.35
2023-05-06T21:52:22.463Z,21.23
2023-05-06T21:55:08.461Z,18.15
2023-05-06T21:57:53.794Z,21.23
2023-05-06T22:00:39.071Z,21.55
2023-05-06T22:03:24.249Z,21.50
2023-05-06T22:06:09.476Z,22.80
2023-05-06T22:08:54.734Z,23.63
2023-05-06T22:11:40.260Z,25.05
2023-05-06T22:14:30.256Z,24.55
2023-05-06T22:17:23.089Z,25.55
2023-05-06T22:20:09.255Z,29.38
2023-05-06T22:22:54.851Z,26.73
2023-05-06T22:25:40.086Z,31.33
2023-05-06T22:28:25.338Z,31.90
2023-05-06T22:31:10.898Z,30.55
2023-05-06T22:33:56.433Z,33.55
2023-05-06T22:36:42.001Z,32.88
2023-05-06T22:39:27.138Z,32.63
2023-05-06T22:42:12.515Z,31.75
2023-05-06T22:44:57.810Z,32.22
2023-05-06T22:47:43.235Z,34.70
2023-05-06T22:50:28.372Z,33.42
2023-05-06T22:53:15.658Z,35.90
2023-05-06T22:56:01.150Z,33.85
2023-05-06T22:58:46.733Z,34.67
2023-05-06T23:01:32.547Z,34.92
2023-05-06T23:04:17.922Z,34.05
2023-05-06T23:07:03.196Z,35.60
2023-05-06T23:09:48.312Z,34.67
2023-05-06T23:12:34.324Z,35.83
2023-05-06T23:15:19.943Z,34.47
2023-05-06T23:18:05.654Z,35.22
2023-05-06T23:20:51.122Z,39.25
2023-05-06T23:23:36.464Z,38.70
2023-05-06T23:26:21.917Z,40.13
2023-05-06T23:29:07.344Z,39.65
2023-05-06T23:31:52.445Z,41.85
2023-05-06T23:34:37.912Z,42.30
2023-05-06T23:37:23.132Z,43.20
2023-05-06T23:40:08.818Z,44.05
2023-05-06T23:42:54.230Z,43.05
2023-05-06T23:45:39.349Z,43.83
2023-05-06T23:48:24.625Z,46.15
2023-05-06T23:51:10.077Z,51.13
2023-05-06T23:53:55.341Z,46.58
2023-05-06T23:56:40.592Z,45.47
2023-05-06T23:59:26.175Z,47.45
